Hlavní strana
METAR-TAF:

METAR-TAF

Letiště :

Alta, Norsko

zeměpisná šířka: 69-59N, zeměpisná délka: 023-22E, výška: 0 m

Aktuální stav počasí

Zpráva byla vytvořena před 41 minutami, v 18:50 UTC
Východní vítr 9 kt
Teplota 1°C
Vlhkost vzduchu 75%
Tlak 983 hPa
Viditelnost 10 km a více
Polojasno ve výšce 2200 ft
Oblačno až skoro zataženo ve výšce 3100 ft
slabé sněžení

METAR: ENAT 221850Z 08009KT 9999 -SN SCT022 BKN031 01/M03 Q0983 RMK WIND 700FT 00000KT

Čas: 21:31 (19:31 UTC)

Předpověď počasí

Zpráva byla vytvořena před 2 hodinami a 31 minutami, v 17:00 UTC
Předpověď platná od 22 v 18 UTC do 22 v 22 UTC
Jihovýchodní vítr 12 kt
Viditelnost: 9000 m
Polojasno ve výšce 1500 ft
Oblačno až skoro zataženo ve výšce 3000 ft
slabé sněžení
Pravděpodobnost 30% :
Dočasný
od 22 v 18 UTC do 22 v 21 UTC
Viditelnost: 2000 m
ve výšce 800 ft
sníh
Změna
od 22 v 18 UTC do 22 v 20 UTC
Východoseverovýchodní vítr 15 kt

TAF: ENAT 221700Z 2218/2222 14012KT 9000 -SN SCT015 BKN030 PROB30 TEMPO 2218/2221 2000 SN VV008 BECMG 2218/2220 07015KT

Stav a předpovědi počasí z více než 4 000 letišť (zprávy METAR a TAF).

Červené a žluté tečky na mapě představují dostupné meteorologické stanice.

Když kurzor umístíte na tečku, zobrazí se název stanice.

Pak kliknutím zobrazíte stav a předpověď počasí.

Chcete-li změnit mapu, kliknutím na zelené tlačítko se znaménkem +mapu přiblížíte, kliknutím na zelené tlačítko se znaménkem – mapu oddálíte a kliknutím na zelené šipky přejdete na sousední mapy.


METAR-TAF: